Time;durP1;ratioP1;P1;durP2;ratioP2;P2;SDS_P1;SDS_P2;PMS_P1;PMS_P2;Temp;Humidity;BMP_temperature;BMP_pressure;BME280_temperature;BME280_humidity;BME280_pressure;Samples;Min_cycle;Max_cycle;Signal;HPM_P1;HPM_P2
2022/01/20 00:01:50;;;;;;;3.17;1.60;;;-4.90;99.90;;;;;;2224636;64;20084;-40
2022/01/20 00:04:26;;;;;;;7.88;2.72;;;-4.90;99.90;;;;;;2224529;64;20087;-36
2022/01/20 00:26:10;;;;;;;5.63;2.17;;;-5.00;99.90;;;;;;2221884;64;20104;-37
2022/01/20 00:28:56;;;;;;;5.67;1.83;;;-5.10;99.90;;;;;;2210982;64;20093;-37
2022/01/20 00:31:34;;;;;;;7.00;2.83;;;-5.10;99.90;;;;;;2211255;64;20551;-38
2022/01/20 00:34:19;;;;;;;4.20;1.53;;;-5.10;99.90;;;;;;2211583;64;20100;-39
2022/01/20 00:39:32;;;;;;;4.73;1.97;;;-5.10;99.90;;;;;;2211734;64;19973;-36
2022/01/20 00:41:59;;;;;;;8.30;3.17;;;-5.00;99.90;;;;;;2211828;64;20144;-36
2022/01/20 00:44:26;;;;;;;3.13;1.50;;;-5.10;99.90;;;;;;2211771;64;20100;-38
2022/01/20 00:46:53;;;;;;;4.37;1.73;;;-5.10;99.90;;;;;;2211866;64;20647;-37
2022/01/20 00:49:21;;;;;;;7.20;2.30;;;-5.10;99.90;;;;;;2211709;64;20093;-35
2022/01/20 00:51:47;;;;;;;6.93;2.13;;;-5.10;99.90;;;;;;2211843;64;20584;-37
2022/01/20 00:54:14;;;;;;;7.57;1.90;;;-5.10;99.90;;;;;;2208568;64;20091;-36
2022/01/20 00:56:42;;;;;;;6.93;2.00;;;-5.10;99.90;;;;;;2211886;64;20528;-37
2022/01/20 00:59:08;;;;;;;5.63;2.77;;;-5.10;99.90;;;;;;2210910;64;20174;-35
2022/01/20 01:01:35;;;;;;;5.63;2.23;;;-5.10;99.90;;;;;;2214010;64;20097;-37
2022/01/20 01:04:02;;;;;;;3.53;1.00;;;-5.10;99.90;;;;;;2217220;64;20081;-36
2022/01/20 01:06:48;;;;;;;6.03;1.93;;;-5.20;99.90;;;;;;2221309;64;20641;-37
2022/01/20 01:09:16;;;;;;;4.53;1.47;;;-5.20;99.90;;;;;;2221107;64;20115;-36
2022/01/20 01:11:47;;;;;;;3.57;1.33;;;-5.10;99.90;;;;;;2221262;64;20092;-36
2022/01/20 01:14:15;;;;;;;4.23;1.57;;;-5.20;99.90;;;;;;2217440;64;20089;-34
2022/01/20 01:22:42;;;;;;;6.50;1.43;;;-5.20;99.90;;;;;;2220868;64;20190;-35
2022/01/20 01:24:53;;;;;;;4.03;1.57;;;-5.20;99.90;;;;;;2219448;64;20257;-35
2022/01/20 01:27:21;;;;;;;3.93;1.30;;;-5.20;99.90;;;;;;2224959;64;20084;-36
2022/01/20 01:32:53;;;;;;;4.20;0.93;;;-5.20;99.90;;;;;;2211628;64;20172;-38
2022/01/20 01:35:23;;;;;;;9.33;2.57;;;-5.20;99.90;;;;;;2211718;64;20596;-38
2022/01/20 01:40:33;;;;;;;4.77;1.57;;;-5.20;99.90;;;;;;2211708;64;20484;-37
2022/01/20 01:43:02;;;;;;;10.13;1.57;;;-5.20;99.90;;;;;;2211571;64;20149;-36
2022/01/20 01:45:35;;;;;;;5.60;2.20;;;-5.10;99.90;;;;;;2211671;64;20644;-37
2022/01/20 01:48:05;;;;;;;7.32;2.05;;;-5.10;99.90;;;;;;2211716;64;20085;-36
2022/01/20 01:50:36;;;;;;;8.53;2.50;;;-5.20;99.90;;;;;;2211696;64;20100;-35
2022/01/20 01:53:05;;;;;;;5.00;1.67;;;-5.20;99.90;;;;;;2211545;64;21102;-37
2022/01/20 01:55:31;;;;;;;3.07;1.17;;;-5.20;99.90;;;;;;2211721;64;20163;-36
2022/01/20 01:58:01;;;;;;;4.97;1.30;;;-5.20;99.90;;;;;;2211464;64;20109;-37
2022/01/20 02:00:30;;;;;;;6.90;2.20;;;-5.20;99.90;;;;;;2211445;64;20081;-36
2022/01/20 02:02:58;;;;;;;5.47;1.40;;;-5.20;99.90;;;;;;2211449;64;20102;-37
2022/01/20 02:05:25;;;;;;;11.20;1.87;;;-5.20;99.90;;;;;;2211634;64;20090;-35
2022/01/20 02:18:51;;;;;;;9.80;1.67;;;-5.20;99.90;;;;;;2220852;64;20713;-43
2022/01/20 02:21:18;;;;;;;9.57;2.57;;;-5.20;99.90;;;;;;2221136;64;20144;-41
2022/01/20 02:23:48;;;;;;;9.70;2.83;;;-5.30;99.90;;;;;;2220631;64;20187;-40
2022/01/20 02:26:15;;;;;;;7.83;2.40;;;-5.20;99.90;;;;;;2213197;64;20093;-38
2022/01/20 02:28:44;;;;;;;7.20;2.03;;;-5.20;99.90;;;;;;2217092;64;20081;-40
2022/01/20 02:31:11;;;;;;;10.67;2.93;;;-5.20;99.90;;;;;;2216375;64;20089;-37
2022/01/20 02:33:37;;;;;;;7.23;2.13;;;-5.20;99.90;;;;;;2217023;64;20113;-36
2022/01/20 02:36:13;;;;;;;16.73;3.00;;;-5.20;99.90;;;;;;2217088;64;20185;-37
2022/01/20 02:38:48;;;;;;;5.93;1.93;;;-5.20;99.90;;;;;;2216911;64;20104;-40
2022/01/20 02:46:49;;;;;;;6.90;3.20;;;-5.20;99.90;;;;;;2216912;64;20117;-35
2022/01/20 02:49:16;;;;;;;4.17;1.60;;;-5.10;99.90;;;;;;2216988;64;20105;-38
2022/01/20 02:51:50;;;;;;;6.80;2.30;;;-5.10;99.90;;;;;;2217155;64;20468;-36
2022/01/20 02:54:18;;;;;;;13.43;2.83;;;-5.20;99.90;;;;;;2220596;64;20111;-38
2022/01/20 02:56:45;;;;;;;10.73;3.10;;;-5.20;99.90;;;;;;2217014;64;20096;-39
2022/01/20 02:59:12;;;;;;;4.60;2.07;;;-5.10;99.90;;;;;;2217016;64;20168;-40
2022/01/20 03:01:39;;;;;;;12.50;3.73;;;-5.10;99.90;;;;;;2220921;64;20505;-36
2022/01/20 03:04:06;;;;;;;4.33;2.30;;;-5.10;99.90;;;;;;2216783;64;20096;-39
2022/01/20 03:06:32;;;;;;;8.40;2.50;;;-5.20;99.90;;;;;;2220822;64;20099;-38
2022/01/20 03:08:59;;;;;;;4.43;1.47;;;-5.20;99.90;;;;;;2216981;64;20097;-36
2022/01/20 03:11:27;;;;;;;9.77;2.50;;;-5.10;99.90;;;;;;2209762;64;20073;-40
2022/01/20 03:13:53;;;;;;;16.80;4.43;;;-5.20;99.90;;;;;;2220801;64;20088;-37
2022/01/20 03:16:20;;;;;;;10.13;3.23;;;-5.10;99.90;;;;;;2220854;64;20139;-38
2022/01/20 03:18:47;;;;;;;7.10;2.30;;;-5.10;99.90;;;;;;2220827;64;20417;-38
2022/01/20 03:21:14;;;;;;;6.73;2.53;;;-5.20;99.90;;;;;;2220989;64;20084;-38
2022/01/20 03:23:41;;;;;;;7.97;2.77;;;-5.20;99.90;;;;;;2220506;64;20189;-37
2022/01/20 03:26:08;;;;;;;8.37;2.47;;;-5.20;99.90;;;;;;2223552;64;20088;-37
2022/01/20 03:28:35;;;;;;;7.07;1.80;;;-5.20;99.90;;;;;;2224657;64;20616;-36
2022/01/20 03:31:02;;;;;;;9.60;2.23;;;-5.20;99.90;;;;;;2224459;64;20068;-37
2022/01/20 03:33:28;;;;;;;10.10;1.93;;;-5.20;99.90;;;;;;2224481;64;20120;-36
2022/01/20 03:35:55;;;;;;;12.40;3.40;;;-5.20;99.90;;;;;;2224472;64;20108;-38
2022/01/20 03:38:22;;;;;;;5.63;1.30;;;-5.20;99.90;;;;;;2224564;64;20107;-38
2022/01/20 03:40:50;;;;;;;2.20;0.97;;;-5.20;99.90;;;;;;2224640;64;20475;-39
2022/01/20 03:43:18;;;;;;;7.07;2.10;;;-5.20;99.90;;;;;;2224352;64;20196;-37
2022/01/20 03:45:50;;;;;;;8.53;2.60;;;-5.20;99.90;;;;;;2224517;64;20092;-36
2022/01/20 03:48:19;;;;;;;6.70;2.60;;;-5.30;99.90;;;;;;2224572;64;20088;-37
2022/01/20 03:51:04;;;;;;;8.60;2.50;;;-5.20;99.90;;;;;;2224710;64;20460;-37
2022/01/20 03:53:35;;;;;;;8.77;2.40;;;-5.30;99.90;;;;;;2224307;64;20171;-36
2022/01/20 03:56:02;;;;;;;5.83;2.43;;;-5.30;99.90;;;;;;2224511;64;20091;-39
2022/01/20 03:58:30;;;;;;;3.80;1.77;;;-5.30;99.90;;;;;;2224601;64;20084;-39
2022/01/20 04:00:57;;;;;;;5.40;1.87;;;-5.30;99.90;;;;;;2224702;64;20096;-38
2022/01/20 04:03:24;;;;;;;3.30;1.47;;;-5.20;99.90;;;;;;2224270;64;20107;-39
2022/01/20 04:06:06;;;;;;;9.97;3.07;;;-5.30;99.90;;;;;;2224567;64;20084;-37
2022/01/20 04:08:35;;;;;;;4.43;1.77;;;-5.30;99.90;;;;;;2224149;64;20495;-38
2022/01/20 04:11:12;;;;;;;6.60;2.07;;;-5.30;99.90;;;;;;2224324;64;20084;-37
2022/01/20 04:13:39;;;;;;;6.57;1.43;;;-5.30;99.90;;;;;;2224404;64;20619;-39
2022/01/20 04:16:36;;;;;;;5.77;1.70;;;-5.30;99.90;;;;;;2224659;64;20088;-38
2022/01/20 04:19:08;;;;;;;7.83;1.40;;;-5.30;99.90;;;;;;2220404;64;20106;-36
2022/01/20 04:21:35;;;;;;;3.63;1.37;;;-5.30;99.90;;;;;;2224486;64;20096;-43
2022/01/20 04:24:03;;;;;;;7.43;1.80;;;-5.30;99.90;;;;;;2224107;64;20103;-36
2022/01/20 04:26:30;;;;;;;4.07;1.67;;;-5.30;99.90;;;;;;2221016;64;20140;-36
2022/01/20 04:28:57;;;;;;;5.23;1.63;;;-5.40;99.90;;;;;;2220507;64;20073;-36
2022/01/20 04:31:24;;;;;;;6.50;2.07;;;-5.30;99.90;;;;;;2220516;64;20101;-36
2022/01/20 04:33:51;;;;;;;2.60;1.30;;;-5.40;99.90;;;;;;2220499;64;20111;-36
2022/01/20 04:36:18;;;;;;;7.90;1.70;;;-5.40;99.90;;;;;;2220745;64;20103;-37
2022/01/20 04:38:45;;;;;;;2.80;1.50;;;-5.40;99.90;;;;;;2220506;64;20464;-36
2022/01/20 04:41:11;;;;;;;7.63;2.50;;;-5.40;99.90;;;;;;2220592;64;20456;-37
2022/01/20 04:43:38;;;;;;;9.43;2.53;;;-5.50;99.90;;;;;;2220425;64;20104;-39
2022/01/20 04:57:21;;;;;;;5.40;1.67;;;-5.50;99.90;;;;;;2216414;64;20093;-35
2022/01/20 04:59:51;;;;;;;4.57;1.83;;;-5.50;99.90;;;;;;2216077;64;20421;-40
2022/01/20 05:02:18;;;;;;;5.43;1.50;;;-5.50;99.90;;;;;;2212893;64;20092;-40
2022/01/20 05:04:45;;;;;;;8.40;1.63;;;-5.60;99.90;;;;;;2216400;64;20085;-36
2022/01/20 05:07:21;;;;;;;3.13;1.37;;;-5.60;99.90;;;;;;2216753;64;20112;-37
2022/01/20 05:09:49;;;;;;;4.80;2.03;;;-5.60;99.90;;;;;;2216509;64;20103;-36
2022/01/20 05:12:24;;;;;;;5.23;2.37;;;-5.60;99.90;;;;;;2216664;64;20457;-38
2022/01/20 05:14:51;;;;;;;3.13;1.15;;;-5.60;99.90;;;;;;2216646;64;20163;-37
2022/01/20 05:17:19;;;;;;;5.23;2.03;;;-5.50;99.90;;;;;;2216655;64;20545;-38
2022/01/20 05:19:45;;;;;;;8.50;2.93;;;-5.50;99.90;;;;;;2216745;64;20168;-38
2022/01/20 05:22:13;;;;;;;5.40;1.97;;;-5.50;99.90;;;;;;2217274;64;20148;-39
2022/01/20 05:24:43;;;;;;;4.80;1.37;;;-5.50;99.90;;;;;;2217460;64;20500;-36
2022/01/20 05:27:14;;;;;;;8.33;3.60;;;-5.50;99.90;;;;;;2221154;64;20092;-37
2022/01/20 05:29:41;;;;;;;5.97;1.37;;;-5.60;99.90;;;;;;2221127;64;20100;-37
2022/01/20 05:32:08;;;;;;;7.93;2.20;;;-5.50;99.90;;;;;;2221023;64;20095;-37
2022/01/20 05:34:36;;;;;;;5.03;1.67;;;-5.60;99.90;;;;;;2220974;64;20146;-38
2022/01/20 05:37:05;;;;;;;4.63;1.50;;;-5.50;99.90;;;;;;2221065;64;20107;-39
2022/01/20 05:39:32;;;;;;;4.40;1.50;;;-5.50;99.90;;;;;;2220925;64;20555;-37
2022/01/20 05:42:00;;;;;;;7.20;1.93;;;-5.50;99.90;;;;;;2220448;64;20106;-37
2022/01/20 05:44:26;;;;;;;5.43;2.03;;;-5.50;99.90;;;;;;2220937;64;20168;-37
2022/01/20 05:46:53;;;;;;;5.07;1.90;;;-5.40;99.90;;;;;;2221294;64;20115;-38
2022/01/20 05:49:23;;;;;;;10.93;2.20;;;-5.50;99.90;;;;;;2220352;64;20100;-40
2022/01/20 05:51:54;;;;;;;6.50;2.47;;;-5.50;99.90;;;;;;2220540;64;20077;-38
2022/01/20 05:54:21;;;;;;;13.80;2.53;;;-5.40;99.90;;;;;;2224877;64;20092;-38
2022/01/20 05:56:50;;;;;;;5.87;2.33;;;-5.50;99.90;;;;;;2224835;64;20119;-39
2022/01/20 05:59:17;;;;;;;11.77;2.20;;;-5.50;99.90;;;;;;2224782;64;20096;-40
2022/01/20 06:01:51;;;;;;;3.30;1.27;;;-5.40;99.90;;;;;;2225051;64;20165;-39
2022/01/20 06:04:18;;;;;;;10.93;3.00;;;-5.40;99.90;;;;;;2224624;64;20092;-38
2022/01/20 06:06:44;;;;;;;8.30;2.57;;;-5.30;99.90;;;;;;2224968;64;20080;-36
2022/01/20 06:09:11;;;;;;;4.60;1.87;;;-5.40;99.90;;;;;;2224762;64;20197;-38
2022/01/20 06:11:38;;;;;;;7.13;2.37;;;-5.30;99.90;;;;;;2224783;64;20548;-37
2022/01/20 06:14:05;;;;;;;6.53;2.10;;;-5.40;99.90;;;;;;2224651;64;20088;-38
2022/01/20 06:16:31;;;;;;;10.30;2.13;;;-5.30;99.90;;;;;;2224841;64;20072;-37
2022/01/20 06:18:58;;;;;;;4.00;1.60;;;-5.30;99.90;;;;;;2224668;64;20088;-39
2022/01/20 06:21:25;;;;;;;5.70;1.70;;;-5.30;99.90;;;;;;2224766;64;20173;-38
2022/01/20 06:23:51;;;;;;;5.70;2.40;;;-5.30;99.90;;;;;;2224455;64;20104;-36
2022/01/20 06:26:19;;;;;;;6.17;2.37;;;-5.40;99.90;;;;;;2221770;64;20560;-43
2022/01/20 06:28:45;;;;;;;3.73;1.50;;;-5.40;99.90;;;;;;2220852;64;20092;-37
2022/01/20 06:31:15;;;;;;;7.00;2.33;;;-5.30;99.90;;;;;;2220644;64;20575;-38
2022/01/20 06:33:41;;;;;;;5.70;1.33;;;-5.30;99.90;;;;;;2217082;64;20119;-41
2022/01/20 06:36:08;;;;;;;8.43;2.27;;;-5.20;99.90;;;;;;2220964;64;20103;-40
2022/01/20 06:38:36;;;;;;;4.40;1.27;;;-5.20;99.90;;;;;;2220565;64;20095;-42
2022/01/20 06:41:03;;;;;;;2.43;1.03;;;-5.40;99.90;;;;;;2220906;64;20555;-41
2022/01/20 06:43:30;;;;;;;5.97;1.07;;;-5.30;99.90;;;;;;2220766;64;20672;-42
2022/01/20 06:45:57;;;;;;;1.67;0.53;;;-5.30;99.90;;;;;;2217170;64;20544;-41
2022/01/20 06:48:24;;;;;;;7.27;1.47;;;-5.20;99.90;;;;;;2220815;64;20089;-39
2022/01/20 06:50:50;;;;;;;8.53;1.83;;;-5.10;99.90;;;;;;2220937;64;20107;-37
2022/01/20 06:53:18;;;;;;;5.87;1.90;;;-5.20;99.90;;;;;;2220737;64;20111;-37
2022/01/20 06:55:45;;;;;;;7.73;2.00;;;-5.20;99.90;;;;;;2220901;64;20201;-37
2022/01/20 06:58:15;;;;;;;5.00;1.53;;;-5.30;99.90;;;;;;2220776;64;20112;-38
2022/01/20 07:00:41;;;;;;;4.33;1.87;;;-5.30;99.90;;;;;;2220831;64;20104;-38
2022/01/20 07:03:07;;;;;;;7.97;2.10;;;-5.30;99.90;;;;;;2220721;64;20084;-39
2022/01/20 07:05:36;;;;;;;3.30;1.37;;;-5.40;99.90;;;;;;2220912;64;20096;-40
2022/01/20 07:08:04;;;;;;;5.40;2.30;;;-5.40;99.90;;;;;;2220583;64;20112;-40
2022/01/20 07:10:31;;;;;;;5.70;2.23;;;-5.40;99.90;;;;;;2220838;64;20177;-40
2022/01/20 07:13:00;;;;;;;5.00;1.63;;;-5.40;99.90;;;;;;2220801;64;20097;-38
2022/01/20 07:15:26;;;;;;;7.57;2.10;;;-5.30;99.90;;;;;;2220860;64;20611;-36
2022/01/20 07:17:53;;;;;;;7.17;1.90;;;-5.30;99.90;;;;;;2220677;64;20107;-37
2022/01/20 07:20:21;;;;;;;5.17;1.80;;;-5.30;99.90;;;;;;2220805;64;20185;-36
2022/01/20 07:22:49;;;;;;;2.60;1.13;;;-5.30;99.90;;;;;;2220653;64;20119;-37
2022/01/20 07:25:16;;;;;;;4.03;1.63;;;-5.30;99.90;;;;;;2222161;64;20091;-39
2022/01/20 07:27:45;;;;;;;3.30;1.00;;;-5.20;99.90;;;;;;2224606;64;20084;-36
2022/01/20 07:30:12;;;;;;;4.13;1.33;;;-5.10;99.90;;;;;;2224606;64;20432;-39
2022/01/20 07:32:40;;;;;;;5.67;2.10;;;-5.10;99.90;;;;;;2224546;64;20150;-38
2022/01/20 07:35:07;;;;;;;8.93;1.93;;;-5.10;99.90;;;;;;2224498;64;20107;-37
2022/01/20 07:37:33;;;;;;;4.13;1.30;;;-5.10;99.90;;;;;;2224466;64;20111;-36
2022/01/20 07:40:04;;;;;;;3.40;1.30;;;-4.90;99.90;;;;;;2224664;64;20091;-39
2022/01/20 07:42:31;;;;;;;2.73;1.10;;;-4.90;99.90;;;;;;2224380;64;20212;-38
2022/01/20 07:44:57;;;;;;;8.27;2.53;;;-4.70;99.90;;;;;;2224608;64;20104;-36
2022/01/20 07:47:24;;;;;;;8.30;2.53;;;-4.60;99.90;;;;;;2224483;64;20088;-38
2022/01/20 07:49:51;;;;;;;5.40;2.10;;;-4.70;99.90;;;;;;2224498;64;20092;-40
2022/01/20 07:52:19;;;;;;;7.90;2.63;;;-4.70;99.90;;;;;;2224306;64;20564;-39
2022/01/20 07:54:46;;;;;;;6.23;2.20;;;-4.70;99.90;;;;;;2224684;64;20155;-37
2022/01/20 07:57:12;;;;;;;5.37;1.50;;;-4.60;99.90;;;;;;2224445;64;20076;-37
2022/01/20 07:59:39;;;;;;;4.33;1.30;;;-4.60;99.90;;;;;;2224459;64;20072;-39
2022/01/20 08:02:06;;;;;;;5.07;1.80;;;-4.50;99.90;;;;;;2224374;64;20131;-37
2022/01/20 08:04:34;;;;;;;3.33;1.30;;;-4.50;99.90;;;;;;2224726;64;20157;-39
2022/01/20 08:07:01;;;;;;;4.33;1.20;;;-4.60;99.90;;;;;;2224576;64;20587;-36
2022/01/20 08:09:28;;;;;;;2.47;0.50;;;-4.60;99.90;;;;;;2224253;64;20089;-39
2022/01/20 08:11:55;;;;;;;7.50;2.10;;;-4.50;99.90;;;;;;2224473;64;20135;-38
2022/01/20 08:14:36;;;;;;;2.20;0.93;;;-4.60;99.90;;;;;;2224559;64;20096;-39
2022/01/20 08:17:04;;;;;;;4.00;0.97;;;-4.60;99.90;;;;;;2224531;64;20072;-39
2022/01/20 08:19:31;;;;;;;5.53;1.63;;;-4.70;99.90;;;;;;2224537;64;20096;-37
2022/01/20 08:22:00;;;;;;;4.07;1.33;;;-4.70;99.90;;;;;;2220459;64;20099;-37
2022/01/20 08:24:27;;;;;;;4.17;1.03;;;-4.80;99.90;;;;;;2224356;64;20705;-37
2022/01/20 08:26:53;;;;;;;5.43;1.27;;;-4.80;99.90;;;;;;2220236;64;20483;-36
2022/01/20 08:29:20;;;;;;;8.30;1.63;;;-4.90;99.90;;;;;;2220359;64;20091;-40
2022/01/20 08:31:47;;;;;;;2.60;0.83;;;-4.90;99.90;;;;;;2220485;64;20108;-43
2022/01/20 08:34:15;;;;;;;5.13;1.17;;;-4.90;99.90;;;;;;2206125;64;20131;-36
2022/01/20 08:36:42;;;;;;;4.07;1.73;;;-4.90;99.90;;;;;;2220206;64;20173;-38
2022/01/20 08:41:53;;;;;;;8.48;2.53;;;-5.00;99.90;;;;;;2220535;64;20109;-40
2022/01/20 08:44:20;;;;;;;6.57;1.37;;;-4.90;99.90;;;;;;2220274;64;20111;-40
2022/01/20 08:46:47;;;;;;;3.30;1.13;;;-4.90;99.90;;;;;;2220484;64;20104;-36
2022/01/20 08:49:13;;;;;;;3.60;0.97;;;-4.90;99.90;;;;;;2216544;64;20599;-37
2022/01/20 08:51:40;;;;;;;6.13;2.50;;;-5.00;99.90;;;;;;2220518;64;20092;-39
2022/01/20 08:54:07;;;;;;;1.90;0.43;;;-5.00;99.90;;;;;;2216639;64;20185;-37
2022/01/20 08:56:36;;;;;;;6.93;2.07;;;-4.90;99.90;;;;;;2221327;64;20089;-37
2022/01/20 08:59:05;;;;;;;5.77;1.43;;;-4.80;99.90;;;;;;2217441;64;20564;-37
2022/01/20 09:01:35;;;;;;;5.17;1.73;;;-4.80;99.90;;;;;;2217438;64;20197;-40
2022/01/20 09:04:02;;;;;;;2.47;0.60;;;-4.80;99.90;;;;;;2211457;64;20116;-40
2022/01/20 09:06:29;;;;;;;4.07;1.83;;;-4.90;99.90;;;;;;2211651;64;20454;-39
2022/01/20 09:08:55;;;;;;;5.53;1.50;;;-4.90;99.90;;;;;;2211590;64;20097;-40
2022/01/20 09:11:24;;;;;;;7.53;2.13;;;-5.00;99.90;;;;;;2211520;64;20533;-40
2022/01/20 09:16:36;;;;;;;8.43;2.90;;;-4.90;99.90;;;;;;2211731;64;20086;-42
2022/01/20 09:19:03;;;;;;;9.40;3.07;;;-4.90;99.90;;;;;;2211862;64;20098;-37
2022/01/20 09:21:30;;;;;;;5.50;1.57;;;-5.00;99.90;;;;;;2211665;64;20082;-38
2022/01/20 09:23:57;;;;;;;4.27;1.13;;;-5.00;99.90;;;;;;2211589;64;20098;-37
2022/01/20 09:26:23;;;;;;;4.90;1.60;;;-5.00;99.90;;;;;;2214690;64;20170;-36
2022/01/20 09:28:50;;;;;;;3.17;1.33;;;-5.10;99.90;;;;;;2215558;64;20583;-39
2022/01/20 09:31:21;;;;;;;4.53;1.83;;;-5.20;99.90;;;;;;2215461;64;20085;-38
2022/01/20 09:33:48;;;;;;;5.70;1.77;;;-5.20;99.90;;;;;;2215448;64;20117;-40
2022/01/20 09:36:15;;;;;;;6.97;2.70;;;-5.20;99.90;;;;;;2224194;64;20100;-39
2022/01/20 09:38:42;;;;;;;4.83;1.40;;;-5.20;99.90;;;;;;2224994;64;20123;-37
2022/01/20 09:41:08;;;;;;;7.53;2.03;;;-5.10;99.90;;;;;;2224695;64;20114;-39
2022/01/20 09:43:35;;;;;;;4.97;1.47;;;-5.20;99.90;;;;;;2221034;64;20091;-39
2022/01/20 09:46:02;;;;;;;6.77;2.03;;;-5.40;99.90;;;;;;2224790;64;20096;-37
2022/01/20 09:48:29;;;;;;;7.70;2.73;;;-5.50;99.90;;;;;;2224803;64;20081;-38
2022/01/20 09:50:56;;;;;;;8.53;3.33;;;-5.60;99.90;;;;;;2224749;64;20084;-38
2022/01/20 09:53:23;;;;;;;7.83;2.57;;;-5.70;99.90;;;;;;2224620;64;20169;-38
2022/01/20 09:55:49;;;;;;;6.43;2.17;;;-5.70;99.90;;;;;;2220822;64;20485;-38
2022/01/20 09:58:16;;;;;;;6.23;1.60;;;-5.70;99.90;;;;;;2224875;64;20198;-37
2022/01/20 10:00:43;;;;;;;4.23;1.53;;;-5.60;99.90;;;;;;2224695;64;20167;-37
2022/01/20 10:03:20;;;;;;;6.60;2.30;;;-5.60;99.90;;;;;;2224738;64;20198;-37
2022/01/20 10:05:51;;;;;;;4.43;1.60;;;-5.60;99.90;;;;;;2224495;64;20527;-38
2022/01/20 10:08:25;;;;;;;4.60;1.30;;;-5.80;99.90;;;;;;2224567;64;20089;-40
2022/01/20 10:10:56;;;;;;;4.57;1.85;;;-5.80;99.90;;;;;;2220803;64;20092;-36
2022/01/20 10:13:34;;;;;;;6.70;2.07;;;-5.90;99.90;;;;;;2214400;64;20160;-38
2022/01/20 10:16:07;;;;;;;3.67;1.53;;;-5.80;99.90;;;;;;2220865;64;20072;-37
2022/01/20 10:18:44;;;;;;;3.93;0.70;;;-5.90;99.90;;;;;;2224579;64;20112;-36
2022/01/20 10:21:10;;;;;;;3.27;1.27;;;-5.90;99.90;;;;;;2224685;64;20106;-36
2022/01/20 10:23:42;;;;;;;4.93;1.20;;;-5.80;99.90;;;;;;2220813;64;20088;-39
2022/01/20 10:26:19;;;;;;;7.07;2.43;;;-5.90;99.90;;;;;;2221779;64;20107;-36
2022/01/20 10:29:05;;;;;;;2.13;0.90;;;-5.90;99.90;;;;;;2221019;64;20100;-36
2022/01/20 10:31:37;;;;;;;6.77;1.77;;;-5.90;99.90;;;;;;2220676;64;20149;-37
2022/01/20 10:34:06;;;;;;;5.90;1.63;;;-5.90;99.90;;;;;;2216903;64;20076;-39
2022/01/20 10:36:40;;;;;;;3.23;1.47;;;-5.90;99.90;;;;;;2220528;64;20148;-44
2022/01/20 10:39:06;;;;;;;5.73;1.90;;;-5.90;99.90;;;;;;2220546;64;20437;-42
2022/01/20 10:41:35;;;;;;;2.30;0.83;;;-5.80;99.90;;;;;;2220417;64;20501;-38
2022/01/20 10:44:14;;;;;;;2.27;0.97;;;-5.80;99.90;;;;;;2216583;64;20100;-38
2022/01/20 10:46:58;;;;;;;1.97;0.90;;;-5.80;99.90;;;;;;2220507;64;20088;-39
2022/01/20 10:49:30;;;;;;;5.00;2.23;;;-5.80;99.90;;;;;;2220630;64;20095;-37
2022/01/20 10:52:05;;;;;;;5.07;1.53;;;-5.80;99.90;;;;;;2220499;64;20100;-38
2022/01/20 10:54:41;;;;;;;;;;;-5.70;99.90;;;;;;2221050;64;20088;-40
2022/01/20 10:57:08;;;;;;;5.40;1.63;;;-5.80;99.90;;;;;;2220600;64;20463;-38
2022/01/20 10:59:35;;;;;;;5.17;1.67;;;-5.80;99.90;;;;;;2220647;64;20472;-39
2022/01/20 11:02:01;;;;;;;4.43;1.20;;;-5.90;99.90;;;;;;2217017;64;20694;-37
2022/01/20 11:04:29;;;;;;;10.37;2.47;;;-5.90;99.90;;;;;;2220396;64;20530;-38
2022/01/20 11:06:58;;;;;;;3.50;1.70;;;-5.90;99.90;;;;;;2220802;64;20089;-40
2022/01/20 11:09:26;;;;;;;7.17;2.57;;;-5.90;99.90;;;;;;2220761;64;20580;-41
2022/01/20 11:11:52;;;;;;;7.30;2.63;;;-5.90;99.90;;;;;;2220755;64;20096;-36
2022/01/20 11:14:21;;;;;;;5.00;2.00;;;-5.90;99.90;;;;;;2220344;64;20479;-38
2022/01/20 11:16:50;;;;;;;5.77;2.20;;;-5.80;99.90;;;;;;2216989;64;20173;-41
2022/01/20 11:19:18;;;;;;;7.13;2.20;;;-5.80;99.90;;;;;;2216927;64;20093;-38
2022/01/20 11:21:45;;;;;;;8.93;3.27;;;-5.70;99.90;;;;;;2220698;64;20160;-37
2022/01/20 11:24:21;;;;;;;7.60;3.57;;;-5.70;99.90;;;;;;2220547;64;20111;-38
2022/01/20 11:26:55;;;;;;;6.97;2.47;;;-5.70;99.90;;;;;;2224580;64;20499;-38
2022/01/20 11:29:25;;;;;;;7.47;2.60;;;-5.70;99.90;;;;;;2224403;64;20165;-44
2022/01/20 11:31:52;;;;;;;3.50;1.33;;;-5.80;99.90;;;;;;2220793;64;20111;-37
2022/01/20 11:34:23;;;;;;;6.23;2.40;;;-5.90;99.90;;;;;;2224494;64;20516;-37
2022/01/20 11:36:49;;;;;;;8.53;2.03;;;-6.00;99.90;;;;;;2224609;64;20087;-38
2022/01/20 11:39:19;;;;;;;4.80;2.10;;;-6.00;99.90;;;;;;2224586;64;20100;-39
2022/01/20 11:41:49;;;;;;;1.97;0.80;;;-6.00;99.90;;;;;;2224495;64;20134;-39
2022/01/20 11:44:18;;;;;;;0.90;0.47;;;-6.00;99.90;;;;;;2224296;64;20100;-38
2022/01/20 11:46:46;;;;;;;2.53;1.23;;;-6.10;99.90;;;;;;2224541;64;20564;-40
2022/01/20 11:49:14;;;;;;;8.63;3.07;;;-6.10;99.90;;;;;;2224439;64;20084;-39
2022/01/20 11:51:52;;;;;;;6.73;2.20;;;-6.10;99.90;;;;;;2224572;64;20520;-37
2022/01/20 11:54:28;;;;;;;6.33;1.80;;;-6.10;99.90;;;;;;2224441;64;20168;-37
2022/01/20 11:57:13;;;;;;;4.50;2.53;;;-6.00;99.90;;;;;;2224271;64;20100;-38
2022/01/20 11:59:51;;;;;;;10.70;3.27;;;-6.10;99.90;;;;;;2224430;64;20544;-37
2022/01/20 12:02:35;;;;;;;5.03;1.93;;;-6.10;99.90;;;;;;2224213;64;20165;-37
2022/01/20 12:05:02;;;;;;;3.60;1.13;;;-6.10;99.90;;;;;;2224499;64;20072;-39
2022/01/20 12:07:33;;;;;;;5.70;2.07;;;-6.00;99.90;;;;;;2224479;64;20108;-39
2022/01/20 12:10:22;;;;;;;7.17;2.67;;;-6.10;99.90;;;;;;2224546;64;20076;-37
2022/01/20 12:12:48;;;;;;;4.60;1.53;;;-6.20;99.90;;;;;;2224332;64;20103;-40
2022/01/20 12:15:22;;;;;;;5.27;2.40;;;-6.10;99.90;;;;;;2224468;64;20099;-39
2022/01/20 12:17:53;;;;;;;3.92;1.90;;;-6.20;99.90;;;;;;2224402;64;20106;-39
2022/01/20 12:20:20;;;;;;;4.53;1.50;;;-6.20;99.90;;;;;;2224277;64;20096;-37
2022/01/20 12:22:47;;;;;;;5.60;2.37;;;-6.20;99.90;;;;;;2224404;64;20091;-39
2022/01/20 12:25:18;;;;;;;5.97;2.47;;;-6.30;99.90;;;;;;2211788;64;20511;-39
2022/01/20 12:27:45;;;;;;;5.70;1.80;;;-6.30;99.90;;;;;;2220632;64;20099;-38
2022/01/20 12:30:19;;;;;;;4.70;1.33;;;-6.40;99.90;;;;;;2216337;64;20085;-40
2022/01/20 12:32:56;;;;;;;3.72;1.70;;;-6.40;99.90;;;;;;2220689;64;20140;-37
2022/01/20 12:35:25;;;;;;;5.03;1.17;;;-6.40;99.90;;;;;;2216571;64;20544;-38
2022/01/20 12:37:52;;;;;;;4.27;1.70;;;-6.40;99.90;;;;;;2216633;64;20139;-37
2022/01/20 12:40:22;;;;;;;3.87;1.87;;;-6.40;99.90;;;;;;2220559;64;20096;-43
2022/01/20 12:42:49;;;;;;;3.43;1.70;;;-6.40;99.90;;;;;;2220550;64;20093;-40
2022/01/20 12:48:33;;;;;;;3.67;1.73;;;-6.50;99.90;;;;;;2203489;65;20098;-38
2022/01/20 12:51:05;;;;;;;3.67;1.43;;;-6.50;99.90;;;;;;2203358;65;20086;-37
2022/01/20 12:53:41;;;;;;;4.17;1.53;;;-6.50;99.90;;;;;;2203219;65;20106;-42
2022/01/20 12:56:11;;;;;;;5.17;1.93;;;-6.50;99.90;;;;;;2203167;65;20086;-37
2022/01/20 12:58:52;;;;;;;9.37;3.57;;;-6.50;99.90;;;;;;2203206;65;20559;-37
2022/01/20 13:01:19;;;;;;;6.17;2.50;;;-6.50;99.90;;;;;;2203136;65;20285;-38
2022/01/20 13:03:46;;;;;;;5.80;2.23;;;-6.50;99.90;;;;;;2200181;65;20584;-39
2022/01/20 13:06:25;;;;;;;4.97;1.37;;;-6.50;99.90;;;;;;2203069;65;20141;-36
2022/01/20 13:08:56;;;;;;;6.27;2.30;;;-6.50;99.90;;;;;;2203456;65;20181;-42
2022/01/20 13:11:38;;;;;;;5.50;1.80;;;-6.60;99.90;;;;;;2203363;65;20086;-37
2022/01/20 13:14:04;;;;;;;3.97;1.57;;;-6.60;99.90;;;;;;2203270;65;20121;-38
2022/01/20 13:16:32;;;;;;;4.97;1.93;;;-6.50;99.90;;;;;;2203331;65;20161;-39
2022/01/20 13:19:03;;;;;;;3.07;1.50;;;-6.60;99.90;;;;;;2208874;64;20084;-37
2022/01/20 13:21:41;;;;;;;4.83;1.97;;;-6.50;99.90;;;;;;2220218;64;20089;-38
2022/01/20 13:24:08;;;;;;;1.70;0.53;;;-6.40;99.90;;;;;;2220198;64;20112;-39
2022/01/20 13:26:49;;;;;;;4.47;1.73;;;-6.40;99.90;;;;;;2223692;64;20111;-37
2022/01/20 13:29:15;;;;;;;5.97;2.20;;;-6.50;99.90;;;;;;2224179;64;20096;-37
2022/01/20 13:31:45;;;;;;;6.57;2.00;;;-6.50;99.90;;;;;;2220357;64;20165;-40
2022/01/20 13:34:14;;;;;;;8.27;1.73;;;-6.60;99.90;;;;;;2224371;64;20173;-37
2022/01/20 13:36:42;;;;;;;3.77;1.30;;;-6.60;99.90;;;;;;2220290;64;20151;-39
2022/01/20 13:39:10;;;;;;;2.23;1.23;;;-6.60;99.90;;;;;;2224192;64;20092;-38
2022/01/20 13:41:36;;;;;;;5.13;1.10;;;-6.60;99.90;;;;;;2224375;64;20102;-41
2022/01/20 13:47:01;;;;;;;2.93;1.57;;;-6.60;99.90;;;;;;2224764;64;20110;-38
2022/01/20 13:49:27;;;;;;;1.80;0.73;;;-6.60;99.90;;;;;;2224593;64;20444;-40
2022/01/20 13:52:02;;;;;;;5.67;2.63;;;-6.70;99.90;;;;;;2224903;64;20172;-39
2022/01/20 13:54:35;;;;;;;;;;;-6.70;99.90;;;;;;2224923;64;20472;-40
2022/01/20 13:57:02;;;;;;;4.20;1.83;;;-6.80;99.90;;;;;;2224557;64;20383;-39
2022/01/20 13:59:29;;;;;;;5.70;1.33;;;-6.90;99.90;;;;;;2224853;64;20111;-38
2022/01/20 14:01:55;;;;;;;6.20;1.93;;;-6.90;99.90;;;;;;2224803;64;20103;-40
2022/01/20 14:04:22;;;;;;;3.93;1.20;;;-6.90;99.90;;;;;;2224721;64;20208;-42
2022/01/20 14:06:48;;;;;;;4.90;1.47;;;-6.80;99.90;;;;;;2224742;64;20122;-38
2022/01/20 14:09:14;;;;;;;3.60;1.47;;;-6.70;99.90;;;;;;2224773;64;20218;-37
2022/01/20 14:11:42;;;;;;;5.80;1.67;;;-6.60;99.90;;;;;;2224564;64;20111;-40